Flight Track Log - Related Links

Times and Time Zones

All times are in EDT time to prevent confusion due to time zone crossing. See the ASQ4283 flight status page for this flight to view local times or setup timezone preferences in your user account.

Time Position Orientation Groundspeed Altitude Reporting Facility
EDT Latitude Longitude Course Direction KTS MPH feet Rate Location/Type
Sun 09:07:24 AM 42.7214 -73.8078 283° West 167 192 1,400  Level Boston Center
Sun 09:07:54 AM 42.7006 -73.8131 191° South 173 199 2,500 1,846 Climbing Boston Center
Sun 09:08:55 AM 42.7228 -73.8786 295° West 247 284 4,200 1,706 Climbing Boston Center
Sun 09:09:43 AM 42.7786 -73.9053 341° North 270 311 5,600 2,000 Climbing Boston Center
Sun 09:10:43 AM 42.8511 -73.9439 339° North 284 327 7,800 2,150 Climbing Boston Center
Sun 09:11:00 AM 42.8447 -74.4015 283° West  Level FlightAware Approximate
Sun 09:11:43 AM 42.9214 -73.9767 341° North 284 327 9,900  Level Boston Center
Sun 09:12:00 AM 42.8651 -74.5238 283° West  Level FlightAware Approximate
Sun 09:12:43 AM 43.0003 -74.0128 341° North 284 327 12,100  Level Boston Center
Sun 09:13:43 AM 43.0683 -74.0572 334° Northwest 284 327 13,500 950 Climbing Boston Center
Sun 09:14:43 AM 43.0750 -74.1739 275° West 262 302 14,000 750 Climbing Boston Center
Sun 09:15:43 AM 43.0794 -74.2822 273° West 310 357 15,000 1,200 Climbing Boston Center
Sun 09:16:43 AM 43.0878 -74.4161 275° West 327 376 16,400 1,200 Climbing Boston Center
Sun 09:17:43 AM 43.0919 -74.5269 273° West 332 382 17,400 1,100 Climbing Boston Center
Sun 09:18:43 AM 43.0997 -74.6667 274° West 332 382 18,600 1,000 Climbing Boston Center
Sun 09:19:43 AM 43.1058 -74.7806 274° West 332 382 19,400 950 Climbing Boston Center
Sun 09:20:43 AM 43.1094 -74.9117 272° West 337 388 20,500 1,050 Climbing Boston Center
Sun 09:21:43 AM 43.1147 -75.0428 273° West 344 396 21,500 950 Climbing Boston Center
Sun 09:22:43 AM 43.1200 -75.1739 273° West 349 402 22,400 900 Climbing Boston Center
Sun 09:23:43 AM 43.1269 -75.3106 274° West 349 402 23,300 750 Climbing Boston Center
Sun 09:24:43 AM 43.1319 -75.4475 273° West 354 407 23,900 350 Climbing Boston Center
Sun 09:25:43 AM 43.1406 -75.5903 275° West 367 422 24,000 50 Climbing Boston Center
Sun 09:26:43 AM 43.1447 -75.7383 272° West 386 444 24,000  Level Boston Center
Sun 09:28:15 AM 43.1333 -75.9500 266° West 400 460 24,000  Level Toronto Center
Sun 09:29:16 AM 43.1500 -76.1167 278° West 410 472 24,000  Level Toronto Center
Sun 09:30:15 AM 43.1500 -76.2667 270° West 410 472 24,000  Level Toronto Center
Sun 09:31:15 AM 43.1500 -76.4333 270° West 410 472 24,000  Level Toronto Center
Sun 09:32:15 AM 43.1500 -76.6000 270° West 400 460 24,000  Level Toronto Center
Sun 09:33:15 AM 43.1500 -76.7333 270° West 400 460 24,000  Level Toronto Center
Sun 09:34:15 AM 43.1500 -76.8833 270° West 390 449 24,000  Level Toronto Center
Sun 09:35:15 AM 43.1500 -77.0333 270° West 390 449 24,000  Level Toronto Center
Sun 09:36:15 AM 43.1333 -77.1833 261° West 400 460 24,000  Level Toronto Center
Sun 09:37:15 AM 43.1333 -77.3333 270° West 400 460 24,000  Level Toronto Center
Sun 09:38:15 AM 43.1500 -77.5000 278° West 410 472 24,000  Level Toronto Center
Sun 09:39:15 AM 43.1500 -77.6500 270° West 410 472 24,000  Level Toronto Center
Sun 09:40:15 AM 43.1333 -77.8000 261° West 410 472 24,000  Level Toronto Center
Sun 09:41:15 AM 43.1333 -77.9667 270° West 410 472 24,000  Level Toronto Center
Sun 09:42:15 AM 43.1333 -78.1333 270° West 420 483 24,000  Level Toronto Center
Sun 09:43:15 AM 43.1333 -78.2833 270° West 420 483 24,000  Level Toronto Center
Sun 09:44:15 AM 43.1167 -78.4500 262° West 420 483 24,000  Level Toronto Center
Sun 09:45:15 AM 43.1333 -78.5833 280° West 420 483 24,000  Level Toronto Center
Sun 09:46:15 AM 43.1167 -78.7667 263° West 420 483 24,000  Level Toronto Center
Sun 09:47:15 AM 43.1167 -78.9333 270° West 420 483 24,000  Level Toronto Center
Sun 09:48:15 AM 43.1167 -79.0833 270° West 420 483 24,000  Level Toronto Center
Sun 09:49:15 AM 43.1000 -79.2167 260° West 420 483 24,000  Level Toronto Center
Sun 09:50:15 AM 43.1000 -79.4000 270° West 420 483 24,000  Level Toronto Center
Sun 09:51:15 AM 43.1000 -79.5500 270° West 420 483 24,000  Level Toronto Center
Sun 09:52:15 AM 43.0833 -79.7167 262° West 420 483 24,000  Level Toronto Center
Sun 09:53:15 AM 43.0833 -79.8833 270° West 420 483 24,000  Level Toronto Center
Sun 09:54:15 AM 43.0833 -80.0167 270° West 420 483 24,000  Level Toronto Center
Sun 09:55:15 AM 43.0667 -80.2000 263° West 430 495 24,000  Level Toronto Center
Sun 09:56:15 AM 43.0667 -80.3667 270° West 430 495 24,000  Level Toronto Center
Sun 09:57:15 AM 43.0667 -80.5167 270° West 440 506 24,000  Level Toronto Center
Sun 09:58:15 AM 43.0500 -80.7000 263° West 440 506 24,000  Level Toronto Center
Sun 09:59:15 AM 43.0333 -80.8667 262° West 440 506 24,000  Level Toronto Center
Sun 10:00:15 AM 43.0167 -81.0500 263° West 450 518 24,000  Level Toronto Center
Sun 10:01:15 AM 43.0167 -81.2000 270° West 450 518 24,000  Level Toronto Center
Sun 10:02:15 AM 43.0167 -81.3667 270° West 450 518 24,000  Level Toronto Center
Sun 10:03:15 AM 43.0167 -81.5500 270° West 450 518 24,000  Level Toronto Center
Sun 10:04:15 AM 43.0167 -81.7000 270° West 450 518 24,000  Level Toronto Center
Sun 10:05:15 AM 43.0167 -81.8833 270° West 450 518 24,000  Level Toronto Center
Sun 10:06:15 AM 43.0000 -82.0500 262° West 450 518 24,000  Level Toronto Center
Sun 10:07:15 AM 43.0000 -82.2333 270° West 450 518 24,000  Level Toronto Center
Sun 10:08:15 AM 43.0000 -82.3833 270° West 450 518 24,000  Level Toronto Center
Sun 10:09:15 AM 43.0000 -82.5667 270° West 460 529 24,000  Level Toronto Center
Sun 10:10:04 AM 42.9969 -82.7094 268° West 461 531 24,000  Level Cleveland Center
Sun 10:11:04 AM 42.9875 -82.8850 266° West 461 531 24,000  Level Cleveland Center
Sun 10:12:04 AM 42.9778 -83.0550 266° West 461 531 24,000  Level Cleveland Center
Sun 10:13:04 AM 42.9675 -83.2247 265° West 461 531 24,000  Level Cleveland Center
Sun 10:14:04 AM 42.9575 -83.3944 265° West 461 531 24,000  Level Cleveland Center
Sun 10:15:04 AM 42.9489 -83.5700 266° West 461 531 24,000  Level Cleveland Center
Sun 10:16:04 AM 42.9381 -83.7369 265° West 461 531 24,000  Level Cleveland Center
Sun 10:17:04 AM 42.9264 -83.9264 265° West 461 531 24,000  Level Cleveland Center
Sun 10:18:04 AM 42.9153 -84.0958 265° West 461 531 24,000  Level Cleveland Center
Sun 10:19:04 AM 42.9058 -84.2656 266° West 461 531 24,000  Level Cleveland Center
Sun 10:20:04 AM 42.8967 -84.4153 265° West 456 525 24,000  Level Cleveland Center
Sun 10:21:19 AM 42.8797 -84.6203 264° West 453 521 24,000  Level Chicago Center
Sun 10:22:21 AM 42.8628 -84.7897 262° West 453 521 24,000  Level Chicago Center
Sun 10:23:23 AM 42.8414 -84.9950 262° West 456 525 24,000  Level Chicago Center
Sun 10:24:25 AM 42.8233 -85.1644 262° West 453 521 24,000  Level Chicago Center
Sun 10:25:27 AM 42.8050 -85.3336 262° West 452 520 24,000  Level Chicago Center
Sun 10:26:29 AM 42.7847 -85.5056 261° West 457 526 24,000  Level Chicago Center
Sun 10:27:31 AM 42.7558 -85.6750 257° West 457 526 24,000  Level Chicago Center
Sun 10:28:33 AM 42.7244 -85.8447 256° West 458 527 24,000 -435 Level Chicago Center
Sun 10:29:35 AM 42.6933 -86.0125 256° West 456 525 23,100 -1,355 Descending Chicago Center
Sun 10:30:37 AM 42.6572 -86.2100 256° West 449 517 21,200 -1,500 Descending Chicago Center
Sun 10:31:39 AM 42.6272 -86.3656 255° West 427 491 20,000 -677 Descending Chicago Center
Sun 10:32:41 AM 42.5983 -86.5231 256° West 428 493 19,800 -581 Descending Chicago Center
Sun 10:33:43 AM 42.5683 -86.6847 256° West 426 490 18,800 -1,258 Descending Chicago Center
Sun 10:34:45 AM 42.5336 -86.8325 252° West 420 483 17,200 -1,887 Descending Chicago Center
Sun 10:35:47 AM 42.4936 -86.9744 249° West 419 482 14,900 -2,226 Descending Chicago Center
Sun 10:36:49 AM 42.4539 -87.1125 249° West 402 463 12,600 -2,098 Descending Chicago Center
Sun 10:37:50 AM 42.4106 -87.2708 250° West 379 436 10,600 -1,268 Descending Chicago Center
Sun 10:38:52 AM 42.3744 -87.4053 250° West 378 435 10,000 -290 Descending Chicago Center
Sun 10:39:54 AM 42.3347 -87.5347 247° West 377 434 10,000  Level Chicago Center
Sun 10:40:56 AM 42.2547 -87.6242 220° Southwest 376 433 10,000  Level Chicago Center
Sun 10:41:58 AM 42.1719 -87.7125 218° Southwest 380 437 10,000 -339 Level Chicago Center
Sun 10:43:00 AM 42.1067 -87.7861 220° Southwest 313 360 9,300 -1,220 Descending Chicago Center
Sun 10:44:01 AM 42.0925 -87.9128 261° West 292 336 7,500 -1,190 Descending Chicago Center
Sun 10:44:56 AM 42.1000 -88.0167 276° West 297 342 7,000 -496 Descending Chicago TRACON
Sun 10:46:02 AM 42.1000 -88.1333 270° West 281 323 6,500 -661 Descending Chicago TRACON
Sun 10:47:03 AM 42.0500 -88.2000 225° Southwest 255 293 5,600 -1,409 Descending Chicago TRACON
Sun 10:47:57 AM 42.0000 -88.1667 154° Southeast 231 266 3,800 -2,000 Descending Chicago TRACON

Login

Don't have an account? Register now (free) for customized features, flight alerts, and more!